Time;durP1;ratioP1;P1;durP2;ratioP2;P2;SDS_P1;SDS_P2;PMS_P1;PMS_P2;Temp;Humidity;BMP_temperature;BMP_pressure;BME280_temperature;BME280_humidity;BME280_pressure;Samples;Min_cycle;Max_cycle;Signal;HPM_P1;HPM_P2
2023/10/12 00:02:04;;;;;;;14.73;5.93;;;20.10;99.90;;;;;;7291424;19;20187;-90
2023/10/12 00:04:43;;;;;;;14.43;5.60;;;20.20;99.90;;;;;;7187429;19;2004411;-90
2023/10/12 00:07:17;;;;;;;16.17;5.50;;;20.20;99.90;;;;;;7289490;19;20191;-90
2023/10/12 00:09:48;;;;;;;13.10;5.50;;;20.10;99.90;;;;;;7275805;19;20189;-91
2023/10/12 00:12:15;;;;;;;16.00;5.97;;;20.20;99.90;;;;;;7292407;19;20189;-90
2023/10/12 00:14:41;;;;;;;13.93;5.80;;;20.20;99.90;;;;;;7309412;19;20190;-89
2023/10/12 00:17:07;;;;;;;17.57;6.00;;;20.20;99.90;;;;;;7285873;19;20198;-89
2023/10/12 00:19:33;;;;;;;17.70;6.33;;;20.20;99.90;;;;;;7288621;19;20191;-90
2023/10/12 00:22:08;;;;;;;15.77;5.63;;;20.20;99.90;;;;;;7275760;19;20206;-90
2023/10/12 00:24:33;;;;;;;15.47;5.93;;;20.20;99.90;;;;;;7289058;19;20190;-90
2023/10/12 00:26:59;;;;;;;14.13;6.23;;;20.20;99.90;;;;;;7288768;19;20255;-88
2023/10/12 00:29:25;;;;;;;11.93;5.67;;;20.20;99.90;;;;;;7289206;19;20649;-88
2023/10/12 00:31:54;;;;;;;17.60;6.10;;;20.20;99.90;;;;;;7287088;19;20195;-89
2023/10/12 00:34:27;;;;;;;17.20;6.40;;;20.10;99.90;;;;;;7287929;19;20188;-89
2023/10/12 00:36:53;;;;;;;11.83;5.63;;;20.10;99.90;;;;;;7288536;19;20196;-88
2023/10/12 00:39:27;;;;;;;20.67;6.83;;;20.10;99.90;;;;;;7287907;19;20561;-90
2023/10/12 00:41:55;;;;;;;16.87;6.30;;;20.10;99.90;;;;;;7289201;19;20212;-89
2023/10/12 00:44:26;;;;;;;15.20;5.77;;;20.00;99.90;;;;;;7288420;19;20185;-89
2023/10/12 00:46:59;;;;;;;12.83;6.27;;;20.00;99.90;;;;;;7289293;19;20199;-91
2023/10/12 00:49:29;;;;;;;14.30;6.30;;;20.10;99.90;;;;;;7290064;19;20291;-90
2023/10/12 00:52:08;;;;;;;14.97;6.47;;;20.10;99.90;;;;;;7288152;19;20274;-89
2023/10/12 00:57:05;;;;;;;14.17;6.60;;;20.10;99.90;;;;;;7290406;19;20289;-90
2023/10/12 00:59:34;;;;;;;15.30;6.97;;;20.10;99.90;;;;;;7288665;19;20233;-91
2023/10/12 01:02:11;;;;;;;13.57;6.83;;;20.10;99.90;;;;;;7289914;19;20399;-90
2023/10/12 01:04:41;;;;;;;15.43;7.30;;;20.00;99.90;;;;;;7288494;19;20202;-91
2023/10/12 01:07:10;;;;;;;12.73;7.07;;;20.00;99.90;;;;;;7287690;19;20205;-90
2023/10/12 01:09:43;;;;;;;15.37;7.13;;;20.00;99.90;;;;;;7288247;19;20270;-92
2023/10/12 01:12:17;;;;;;;19.37;7.37;;;19.90;99.90;;;;;;7289075;19;20186;-91
2023/10/12 01:14:47;;;;;;;16.33;7.20;;;19.80;99.90;;;;;;7282471;19;20189;-91
2023/10/12 01:20:16;;;;;;;15.40;7.43;;;19.70;99.90;;;;;;7287838;19;20212;-92
2023/10/12 01:22:47;;;;;;;14.17;7.50;;;19.60;99.90;;;;;;7269022;19;20597;-91
2023/10/12 01:25:29;;;;;;;18.17;7.43;;;19.50;99.90;;;;;;7311588;19;20184;-90
2023/10/12 01:27:55;;;;;;;18.23;8.00;;;19.50;99.90;;;;;;7294405;19;20185;-93
2023/10/12 01:30:27;;;;;;;16.33;7.50;;;19.50;99.90;;;;;;7300149;19;20185;-91
2023/10/12 01:32:57;;;;;;;15.93;8.60;;;19.40;99.90;;;;;;7298272;19;20193;-91
2023/10/12 01:35:48;;;;;;;18.53;9.00;;;19.50;99.90;;;;;;7303501;19;20681;-92
2023/10/12 01:38:14;;;;;;;17.20;7.87;;;19.40;99.90;;;;;;7300101;19;20192;-91
2023/10/12 01:43:17;;;;;;;16.70;7.93;;;19.40;99.90;;;;;;7280449;19;20185;-90
2023/10/12 01:45:44;;;;;;;16.27;8.00;;;19.40;99.90;;;;;;7313956;19;20183;-91
2023/10/12 01:48:22;;;;;;;15.03;7.93;;;19.50;99.90;;;;;;7319119;19;20556;-91
2023/10/12 01:50:49;;;;;;;15.40;8.13;;;19.40;99.90;;;;;;7191848;19;2004811;-92
2023/10/12 01:55:47;;;;;;;16.83;8.10;;;19.60;99.90;;;;;;7297234;19;20205;-90
2023/10/12 01:58:17;;;;;;;18.00;8.17;;;19.40;99.90;;;;;;7306347;19;20302;-90
2023/10/12 02:00:51;;;;;;;18.20;8.57;;;19.40;99.90;;;;;;7316922;19;20198;-91
2023/10/12 02:03:26;;;;;;;14.70;8.20;;;19.40;99.90;;;;;;7271431;19;20191;-92
2023/10/12 02:05:59;;;;;;;16.07;8.27;;;19.40;99.90;;;;;;7294922;19;20562;-89
2023/10/12 02:08:46;;;;;;;15.20;7.87;;;19.40;99.90;;;;;;7293756;19;20252;-90
2023/10/12 02:13:47;;;;;;;16.10;8.47;;;19.30;99.90;;;;;;7290964;19;20197;-90
2023/10/12 02:16:23;;;;;;;16.13;8.00;;;19.30;99.90;;;;;;7312400;19;20218;-91
2023/10/12 02:18:50;;;;;;;18.67;9.20;;;19.30;99.90;;;;;;7293507;19;20205;-91
2023/10/12 02:21:24;;;;;;;17.67;8.73;;;19.30;99.90;;;;;;7294069;19;20284;-91
2023/10/12 02:24:13;;;;;;;18.03;7.90;;;19.30;99.90;;;;;;7293482;19;20193;-91
2023/10/12 02:26:41;;;;;;;15.37;8.00;;;19.30;99.90;;;;;;7263762;19;20208;-91
2023/10/12 02:34:29;;;;;;;20.67;8.60;;;19.20;99.90;;;;;;7269744;19;20613;-91
2023/10/12 02:37:30;;;;;;;17.53;8.50;;;19.30;99.90;;;;;;7293050;19;20193;-90
2023/10/12 02:39:52;;;;;;;17.73;9.10;;;19.10;99.90;;;;;;7188155;19;2004466;-91
2023/10/12 02:42:21;;;;;;;21.97;9.97;;;19.20;99.90;;;;;;7293907;19;20197;-91
2023/10/12 02:44:57;;;;;;;21.77;9.07;;;19.30;99.90;;;;;;7292049;19;20612;-92
2023/10/12 02:47:24;;;;;;;17.03;8.87;;;19.30;99.90;;;;;;7293090;19;20189;-90
2023/10/12 02:50:00;;;;;;;18.73;9.30;;;19.20;99.90;;;;;;7292537;19;20595;-89
2023/10/12 02:52:32;;;;;;;18.47;9.03;;;19.10;99.90;;;;;;7291344;19;20196;-91
2023/10/12 02:55:07;;;;;;;18.80;9.70;;;19.00;99.90;;;;;;7292386;19;20228;-91
2023/10/12 02:57:33;;;;;;;22.50;9.40;;;19.10;99.90;;;;;;7281321;19;20196;-91
2023/10/12 03:00:35;;;;;;;22.30;10.07;;;19.00;99.90;;;;;;7290486;19;20192;-90
2023/10/12 03:02:53;;;;;;;15.63;9.17;;;19.00;99.90;;;;;;7190179;19;2004430;-91
2023/10/12 03:05:32;;;;;;;19.57;9.20;;;19.00;99.90;;;;;;7289825;19;20189;-91
2023/10/12 03:08:06;;;;;;;18.03;9.17;;;19.00;99.90;;;;;;7291602;19;20188;-91
2023/10/12 03:10:33;;;;;;;16.20;8.90;;;18.90;99.90;;;;;;7294799;19;20255;-90
2023/10/12 03:13:04;;;;;;;17.77;9.50;;;18.80;99.90;;;;;;7290703;19;20574;-91
2023/10/12 03:15:46;;;;;;;21.37;9.27;;;18.80;99.90;;;;;;7270322;19;20186;-90
2023/10/12 03:18:12;;;;;;;17.70;9.20;;;18.80;99.90;;;;;;7291139;19;20529;-90
2023/10/12 03:20:38;;;;;;;21.37;9.23;;;18.70;99.90;;;;;;7280832;19;20208;-91
2023/10/12 03:23:13;;;;;;;18.07;9.40;;;18.80;99.90;;;;;;7291285;19;20193;-90
2023/10/12 03:25:43;;;;;;;18.03;9.03;;;18.80;99.90;;;;;;7290061;19;20201;-90
2023/10/12 03:28:28;;;;;;;18.60;9.23;;;18.70;99.90;;;;;;7290671;19;20207;-90
2023/10/12 03:30:54;;;;;;;22.10;9.00;;;18.60;99.90;;;;;;7187215;19;2004577;-89
2023/10/12 03:33:27;;;;;;;19.90;9.50;;;18.70;99.90;;;;;;7286025;19;20201;-89
2023/10/12 03:36:39;;;;;;;17.20;8.93;;;18.70;99.90;;;;;;7289086;19;20191;-90
2023/10/12 03:38:41;;;;;;;21.53;9.50;;;18.70;99.90;;;;;;7289260;19;20650;-91
2023/10/12 03:44:02;;;;;;;20.73;10.03;;;18.50;99.90;;;;;;7182782;19;2004573;-90
2023/10/12 03:46:28;;;;;;;20.07;10.53;;;18.50;99.90;;;;;;7289714;19;20197;-91
2023/10/12 03:49:23;;;;;;;26.43;10.93;;;18.50;99.90;;;;;;7289785;19;20213;-90
2023/10/12 03:51:49;;;;;;;22.17;11.07;;;18.50;99.90;;;;;;7186191;19;2004560;-90
2023/10/12 03:54:26;;;;;;;25.23;11.43;;;18.30;99.90;;;;;;7288277;19;20193;-90
2023/10/12 03:56:56;;;;;;;23.73;11.30;;;18.30;99.90;;;;;;7288483;19;20200;-90
2023/10/12 03:59:31;;;;;;;22.07;10.50;;;18.30;99.90;;;;;;7288077;19;20189;-89
2023/10/12 04:02:00;;;;;;;23.60;11.13;;;18.20;99.90;;;;;;7287815;19;20188;-91
2023/10/12 04:04:35;;;;;;;24.17;11.10;;;18.30;99.90;;;;;;7288454;19;20212;-90
2023/10/12 04:09:43;;;;;;;22.67;11.47;;;18.30;99.90;;;;;;7289038;19;20207;-90
2023/10/12 04:14:54;;;;;;;24.10;11.40;;;18.00;99.90;;;;;;7185687;19;2004476;-89
2023/10/12 04:25:13;;;;;;;24.27;11.27;;;18.00;99.90;;;;;;7285954;19;20656;-89
2023/10/12 04:27:50;;;;;;;20.97;10.60;;;17.80;99.90;;;;;;7286974;19;20188;-90
2023/10/12 04:31:12;;;;;;;22.43;10.07;;;17.80;99.90;;;;;;7266414;19;20188;-90
2023/10/12 04:33:24;;;;;;;22.60;10.90;;;17.60;99.90;;;;;;7183079;19;2004619;-89
2023/10/12 04:41:22;;;;;;;17.70;10.33;;;17.50;99.90;;;;;;7286728;19;20196;-90
2023/10/12 04:43:31;;;;;;;22.03;10.57;;;17.60;99.90;;;;;;7286015;19;20552;-89
2023/10/12 04:48:41;;;;;;;20.57;11.00;;;17.50;99.90;;;;;;7286826;19;20197;-90
2023/10/12 04:51:07;;;;;;;21.37;10.97;;;17.50;99.90;;;;;;7285793;19;20300;-89
2023/10/12 04:56:23;;;;;;;21.13;10.73;;;17.60;99.90;;;;;;7184022;19;2004610;-90
2023/10/12 04:59:14;;;;;;;23.40;11.07;;;17.60;99.90;;;;;;7284867;19;20189;-90
2023/10/12 05:02:04;;;;;;;23.53;10.43;;;17.60;99.90;;;;;;7285145;19;20662;-90
2023/10/12 05:09:37;;;;;;;18.27;9.23;;;17.50;99.90;;;;;;7293054;19;20199;-90
2023/10/12 05:12:03;;;;;;;18.03;8.90;;;17.60;99.90;;;;;;7291607;19;20199;-90
2023/10/12 05:14:33;;;;;;;20.87;9.67;;;17.70;99.90;;;;;;7292263;19;20193;-92
2023/10/12 05:16:59;;;;;;;22.57;9.93;;;17.70;99.90;;;;;;7293932;19;20192;-90
2023/10/12 05:19:26;;;;;;;19.20;9.17;;;17.80;99.90;;;;;;7293795;19;20223;-90
2023/10/12 05:21:54;;;;;;;19.03;8.53;;;17.70;99.90;;;;;;7293330;19;20200;-90
2023/10/12 05:24:22;;;;;;;16.30;8.57;;;17.70;99.90;;;;;;7296129;19;20242;-90
2023/10/12 05:26:53;;;;;;;20.33;9.30;;;17.70;99.90;;;;;;7292701;19;20185;-91
2023/10/12 05:39:46;;;;;;;22.30;9.50;;;17.50;99.90;;;;;;7291264;19;20208;-90
2023/10/12 05:42:15;;;;;;;17.60;9.03;;;17.60;99.90;;;;;;7292760;19;20644;-91
2023/10/12 05:44:43;;;;;;;17.97;8.97;;;17.60;99.90;;;;;;7292932;19;20210;-90
2023/10/12 05:47:12;;;;;;;18.53;9.43;;;17.60;99.90;;;;;;7291134;19;20185;-90
2023/10/12 05:49:40;;;;;;;18.43;9.10;;;17.60;99.90;;;;;;7293060;19;20196;-91
2023/10/12 05:52:08;;;;;;;22.93;11.83;;;17.70;99.90;;;;;;7294959;19;20192;-89
2023/10/12 05:54:34;;;;;;;19.50;8.87;;;17.80;99.90;;;;;;7297547;19;20194;-90
2023/10/12 05:57:19;;;;;;;17.37;8.90;;;17.80;99.90;;;;;;7295315;19;20189;-91
2023/10/12 05:59:46;;;;;;;17.37;9.50;;;17.90;99.90;;;;;;7278182;19;20549;-91
2023/10/12 06:02:13;;;;;;;18.90;8.73;;;18.00;99.90;;;;;;7315408;19;20173;-92
2023/10/12 06:04:39;;;;;;;18.27;9.07;;;17.80;99.90;;;;;;7292377;19;20193;-92
2023/10/12 06:07:05;;;;;;;18.30;8.63;;;17.50;99.90;;;;;;7291081;19;20183;-90
2023/10/12 06:09:37;;;;;;;19.47;9.43;;;17.30;99.90;;;;;;7288199;19;20195;-90
2023/10/12 06:12:08;;;;;;;17.90;10.00;;;17.30;99.90;;;;;;7289832;19;20198;-90
2023/10/12 06:14:38;;;;;;;21.97;10.77;;;17.10;99.90;;;;;;7290139;19;20309;-90
2023/10/12 06:17:07;;;;;;;22.00;11.33;;;17.00;99.90;;;;;;7290371;19;20225;-90
2023/10/12 06:19:36;;;;;;;22.03;12.30;;;17.00;99.90;;;;;;7290508;19;20547;-91
2023/10/12 06:22:23;;;;;;;23.90;14.13;;;17.00;99.90;;;;;;7290494;19;20200;-91
2023/10/12 06:24:52;;;;;;;22.67;13.00;;;17.10;99.90;;;;;;7188059;19;2004796;-91
2023/10/12 06:29:49;;;;;;;22.00;13.03;;;16.90;99.90;;;;;;7303746;19;20193;-91
2023/10/12 06:32:18;;;;;;;27.73;12.30;;;17.00;99.90;;;;;;7298778;19;20542;-91
2023/10/12 06:45:46;;;;;;;19.20;11.37;;;17.40;99.90;;;;;;7290505;19;20222;-91
2023/10/12 06:48:58;;;;;;;20.60;11.30;;;17.30;99.90;;;;;;7291301;19;20188;-91
2023/10/12 06:51:13;;;;;;;20.77;11.07;;;17.40;99.90;;;;;;7187925;19;2004304;-91
2023/10/12 06:53:53;;;;;;;21.00;10.60;;;17.50;99.90;;;;;;7290321;19;20203;-91
2023/10/12 06:59:11;;;;;;;22.97;11.33;;;17.50;99.90;;;;;;7294815;19;20202;-91
2023/10/12 07:04:15;;;;;;;22.17;11.30;;;17.50;99.90;;;;;;7287504;19;20193;-90
2023/10/12 07:06:58;;;;;;;25.40;11.70;;;17.40;99.90;;;;;;7310194;19;20249;-91
2023/10/12 07:09:37;;;;;;;19.60;11.07;;;17.50;99.90;;;;;;7188034;19;2004592;-92
2023/10/12 07:12:07;;;;;;;22.00;11.87;;;17.40;99.90;;;;;;7289494;19;20220;-91
2023/10/12 07:14:38;;;;;;;22.10;11.60;;;17.40;99.90;;;;;;7289267;19;20192;-91
2023/10/12 07:17:09;;;;;;;21.67;12.10;;;17.40;99.90;;;;;;7290742;19;20225;-91
2023/10/12 07:19:40;;;;;;;23.07;11.43;;;17.40;99.90;;;;;;7291243;19;20211;-92
2023/10/12 07:22:09;;;;;;;27.03;12.53;;;17.40;99.90;;;;;;7291565;19;20200;-92
2023/10/12 07:24:38;;;;;;;20.63;11.30;;;17.40;99.90;;;;;;7294302;19;20190;-92
2023/10/12 07:27:18;;;;;;;25.47;11.40;;;17.50;99.90;;;;;;7303340;19;20219;-91
2023/10/12 07:29:44;;;;;;;20.40;10.87;;;17.50;99.90;;;;;;7298193;19;20272;-91
2023/10/12 07:32:38;;;;;;;23.07;10.83;;;17.60;99.90;;;;;;7303463;19;20181;-91
2023/10/12 07:35:17;;;;;;;22.40;11.03;;;17.60;99.90;;;;;;7187710;19;2004657;-91
2023/10/12 07:37:44;;;;;;;23.57;10.93;;;17.80;99.90;;;;;;7288870;19;20197;-91
2023/10/12 07:40:17;;;;;;;21.67;10.30;;;17.90;99.90;;;;;;7289276;19;20198;-92
2023/10/12 07:42:47;;;;;;;21.50;10.27;;;18.00;99.90;;;;;;7289566;19;20213;-91
2023/10/12 07:45:17;;;;;;;20.87;10.43;;;17.90;99.90;;;;;;7288294;19;20209;-91
2023/10/12 07:47:46;;;;;;;23.97;10.37;;;17.90;99.90;;;;;;7288971;19;20205;-92
2023/10/12 07:50:13;;;;;;;23.07;10.27;;;18.00;99.90;;;;;;7289353;19;20212;-90
2023/10/12 07:52:48;;;;;;;21.03;9.90;;;18.00;99.90;;;;;;7289328;19;20196;-91
2023/10/12 07:55:18;;;;;;;19.93;9.93;;;18.10;99.90;;;;;;7283015;19;20188;-91
2023/10/12 07:58:21;;;;;;;18.10;9.70;;;18.10;99.90;;;;;;7309110;19;20274;-90
2023/10/12 08:03:50;;;;;;;16.27;8.83;;;18.10;99.90;;;;;;7286919;19;20199;-91
2023/10/12 08:06:46;;;;;;;17.23;9.03;;;18.20;99.90;;;;;;7184825;19;2004466;-92
2023/10/12 08:11:58;;;;;;;18.37;9.20;;;18.40;99.90;;;;;;7288242;19;20196;-91
2023/10/12 08:19:44;;;;;;;19.63;8.60;;;18.60;99.90;;;;;;7287440;19;20191;-91
2023/10/12 08:22:22;;;;;;;17.63;8.43;;;18.70;99.90;;;;;;7288792;19;20185;-92
2023/10/12 08:24:49;;;;;;;16.80;8.03;;;18.90;99.90;;;;;;7265620;19;20214;-90
2023/10/12 08:27:18;;;;;;;19.80;7.70;;;19.00;99.90;;;;;;7293909;19;20192;-92
2023/10/12 08:45:17;;;;;;;19.80;7.70;;;20.00;99.90;;;;;;7285603;19;20194;-91
2023/10/12 08:47:49;;;;;;;20.23;7.23;;;20.30;99.90;;;;;;7285552;19;20252;-91
2023/10/12 08:52:51;;;;;;;18.10;7.77;;;20.50;99.90;;;;;;7304153;19;20177;-91
2023/10/12 08:55:24;;;;;;;16.40;8.13;;;20.50;99.90;;;;;;7287006;19;20190;-91
2023/10/12 08:58:12;;;;;;;15.20;7.70;;;20.40;99.90;;;;;;7288353;19;20236;-91
2023/10/12 09:00:40;;;;;;;15.60;7.87;;;20.30;99.90;;;;;;7286149;19;20189;-91
2023/10/12 09:05:51;;;;;;;16.10;7.67;;;20.20;99.90;;;;;;7281901;19;20215;-91
2023/10/12 09:11:19;;;;;;;16.27;7.23;;;20.30;99.90;;;;;;7305406;19;20613;-91
2023/10/12 09:13:37;;;;;;;18.13;7.80;;;20.50;99.90;;;;;;7286162;19;20230;-91
2023/10/12 09:16:14;;;;;;;20.03;8.47;;;20.70;99.90;;;;;;7287145;19;20199;-90
2023/10/12 09:18:44;;;;;;;17.73;8.97;;;20.70;99.90;;;;;;7287725;19;20207;-91
2023/10/12 09:23:48;;;;;;;23.03;9.17;;;20.60;99.90;;;;;;7286653;19;20193;-93
2023/10/12 09:29:08;;;;;;;20.30;9.57;;;20.70;99.90;;;;;;7288009;19;20265;-92
2023/10/12 09:36:37;;;;;;;26.37;9.93;;;20.70;99.90;;;;;;7287138;19;20178;-92
2023/10/12 09:39:11;;;;;;;24.30;10.70;;;20.70;99.90;;;;;;7284607;19;20191;-92
2023/10/12 09:41:40;;;;;;;25.63;10.60;;;20.70;99.90;;;;;;7282992;19;20260;-91
2023/10/12 09:44:12;;;;;;;21.60;9.90;;;20.50;99.90;;;;;;7285349;19;20211;-92
2023/10/12 09:46:46;;;;;;;23.43;10.53;;;20.50;99.90;;;;;;7283197;19;20222;-92
2023/10/12 09:49:22;;;;;;;20.93;10.50;;;20.30;99.90;;;;;;7286402;19;20207;-92
2023/10/12 09:51:54;;;;;;;19.70;10.17;;;20.20;99.90;;;;;;7270784;19;20281;-92
2023/10/12 09:54:28;;;;;;;21.90;10.13;;;20.10;99.90;;;;;;7292002;19;20205;-92
2023/10/12 09:57:19;;;;;;;23.83;10.03;;;20.10;99.90;;;;;;7292789;19;20195;-92
2023/10/12 09:59:53;;;;;;;22.43;9.33;;;20.20;99.90;;;;;;7281291;19;20304;-92
2023/10/12 10:02:29;;;;;;;21.10;9.03;;;20.10;99.90;;;;;;7289736;19;20209;-91
2023/10/12 10:05:04;;;;;;;23.40;9.37;;;19.90;99.90;;;;;;7291555;19;20189;-92
2023/10/12 10:07:36;;;;;;;20.43;9.60;;;19.80;99.90;;;;;;7291003;19;20184;-92
2023/10/12 10:10:16;;;;;;;24.00;10.70;;;19.70;99.90;;;;;;7291131;19;20262;-92
2023/10/12 10:12:42;;;;;;;19.60;10.10;;;19.80;99.90;;;;;;7290202;19;20603;-91
2023/10/12 10:15:20;;;;;;;24.13;11.57;;;19.70;99.90;;;;;;7290531;19;20214;-91
2023/10/12 10:17:52;;;;;;;26.63;10.87;;;19.50;99.90;;;;;;7277179;19;20207;-92
2023/10/12 10:22:59;;;;;;;21.17;10.20;;;19.50;99.90;;;;;;7295037;19;20196;-91
2023/10/12 10:25:36;;;;;;;19.03;9.00;;;19.50;99.90;;;;;;7295382;19;20206;-92
2023/10/12 10:28:10;;;;;;;21.43;9.20;;;19.60;99.90;;;;;;7288102;19;20207;-91
2023/10/12 10:30:41;;;;;;;17.77;8.27;;;19.60;99.90;;;;;;7290222;19;20183;-91
2023/10/12 10:33:20;;;;;;;19.47;8.97;;;19.60;99.90;;;;;;7291552;19;20663;-91
2023/10/12 10:36:04;;;;;;;19.97;9.73;;;19.70;99.90;;;;;;7275224;19;20186;-92
2023/10/12 10:38:34;;;;;;;25.87;11.57;;;19.80;99.90;;;;;;7291948;19;20211;-91
2023/10/12 10:41:17;;;;;;;20.77;10.77;;;19.80;99.90;;;;;;7290702;19;20193;-92
2023/10/12 10:43:45;;;;;;;22.70;11.43;;;19.80;99.90;;;;;;7293593;19;20201;-91
2023/10/12 10:46:13;;;;;;;18.30;10.77;;;19.90;99.90;;;;;;7290188;19;20193;-92
2023/10/12 10:48:53;;;;;;;22.27;10.90;;;19.90;99.90;;;;;;7290353;19;20206;-91
2023/10/12 10:51:27;;;;;;;19.20;10.07;;;19.90;99.90;;;;;;7269452;19;20192;-91
2023/10/12 10:53:54;;;;;;;22.30;9.80;;;19.90;99.90;;;;;;7289279;19;20202;-91
2023/10/12 10:56:37;;;;;;;19.97;8.70;;;20.10;99.90;;;;;;7289908;19;20188;-92
2023/10/12 10:59:07;;;;;;;17.90;8.57;;;20.40;99.90;;;;;;7288750;19;20190;-91
2023/10/12 11:01:33;;;;;;;16.93;8.67;;;20.50;99.90;;;;;;7288846;19;20205;-92
2023/10/12 11:04:01;;;;;;;16.87;7.83;;;20.60;99.90;;;;;;7290080;19;20248;-91
2023/10/12 11:06:30;;;;;;;14.20;8.00;;;20.80;99.90;;;;;;7290590;19;20187;-92
2023/10/12 11:09:06;;;;;;;16.97;7.30;;;20.90;99.90;;;;;;7288198;19;20673;-91
2023/10/12 11:11:37;;;;;;;19.27;7.60;;;20.90;99.90;;;;;;7288791;19;20214;-92
2023/10/12 11:14:10;;;;;;;17.33;7.50;;;21.20;99.90;;;;;;7287891;19;20216;-90
2023/10/12 11:16:38;;;;;;;17.67;8.33;;;21.50;99.90;;;;;;7289808;19;20194;-89
2023/10/12 11:19:09;;;;;;;18.87;9.47;;;21.60;99.90;;;;;;7280615;19;20223;-89
2023/10/12 11:21:35;;;;;;;20.50;9.97;;;21.30;99.90;;;;;;7285903;19;20202;-88
2023/10/12 11:24:03;;;;;;;18.10;9.63;;;21.30;99.90;;;;;;7289519;19;20192;-90
2023/10/12 11:26:39;;;;;;;17.60;8.40;;;21.30;99.90;;;;;;7285090;19;20222;-91
2023/10/12 11:29:10;;;;;;;17.60;8.50;;;21.00;99.90;;;;;;7288917;19;21666;-88
2023/10/12 11:31:37;;;;;;;18.07;8.47;;;20.60;99.90;;;;;;7288147;19;20184;-88
2023/10/12 11:34:12;;;;;;;16.77;7.70;;;20.50;99.90;;;;;;7286545;19;20206;-90
2023/10/12 11:36:38;;;;;;;16.00;6.80;;;20.50;99.90;;;;;;7289611;19;20192;-91
2023/10/12 11:39:17;;;;;;;17.47;6.67;;;20.40;99.90;;;;;;7286667;19;20190;-90
2023/10/12 11:42:06;;;;;;;17.87;7.47;;;20.30;99.90;;;;;;7288702;19;20216;-88
2023/10/12 11:44:37;;;;;;;15.03;6.80;;;20.50;99.90;;;;;;7186598;19;2004429;-89
2023/10/12 11:47:07;;;;;;;18.13;7.60;;;20.60;99.90;;;;;;7283718;19;20200;-88
2023/10/12 11:49:49;;;;;;;16.67;7.37;;;20.70;99.90;;;;;;7287881;19;20191;-89
2023/10/12 11:52:29;;;;;;;18.40;7.70;;;20.70;99.90;;;;;;7287740;19;20751;-89
2023/10/12 11:55:06;;;;;;;18.37;7.93;;;20.40;99.90;;;;;;7185458;19;2004581;-89
2023/10/12 11:57:37;;;;;;;20.57;8.23;;;20.10;99.90;;;;;;7287830;19;20202;-89
2023/10/12 12:00:14;;;;;;;19.87;8.53;;;20.00;99.90;;;;;;7288328;19;20215;-91
2023/10/12 12:02:41;;;;;;;18.70;8.53;;;20.10;99.90;;;;;;7285698;19;20203;-91
2023/10/12 12:05:11;;;;;;;18.80;8.90;;;20.10;99.90;;;;;;7286889;19;20641;-89
2023/10/12 12:07:37;;;;;;;19.50;8.67;;;20.10;99.90;;;;;;7286196;19;20210;-90
2023/10/12 12:10:07;;;;;;;22.60;9.33;;;19.90;99.90;;;;;;7287455;19;20195;-89
2023/10/12 12:12:38;;;;;;;22.13;9.27;;;19.90;99.90;;;;;;7284829;19;20200;-89
2023/10/12 12:15:05;;;;;;;23.80;10.30;;;19.80;99.90;;;;;;7286958;19;20223;-90
2023/10/12 12:17:30;;;;;;;22.00;10.30;;;19.80;99.90;;;;;;7288584;19;20207;-89
2023/10/12 12:19:56;;;;;;;22.20;10.33;;;19.90;99.90;;;;;;7287766;19;20193;-90
2023/10/12 12:22:23;;;;;;;20.40;10.13;;;20.10;99.90;;;;;;7288164;19;20198;-89
2023/10/12 12:24:49;;;;;;;19.93;9.87;;;20.10;99.90;;;;;;7287316;19;20185;-89
2023/10/12 12:29:59;;;;;;;22.63;10.30;;;19.90;99.90;;;;;;7300977;19;20200;-89
2023/10/12 12:32:28;;;;;;;21.07;9.93;;;20.10;99.90;;;;;;7295625;19;20196;-88
2023/10/12 12:34:54;;;;;;;20.87;10.60;;;19.90;99.90;;;;;;7291575;19;20221;-90
2023/10/12 12:37:22;;;;;;;23.27;10.97;;;19.80;99.90;;;;;;7296378;19;20181;-89
2023/10/12 12:40:14;;;;;;;23.07;11.13;;;19.80;99.90;;;;;;7288135;19;20599;-88
2023/10/12 12:42:40;;;;;;;24.47;11.37;;;19.90;99.90;;;;;;7288019;19;20651;-89
2023/10/12 12:45:08;;;;;;;24.87;11.43;;;19.80;99.90;;;;;;7286250;19;20194;-88
2023/10/12 12:47:34;;;;;;;23.07;11.67;;;19.80;99.90;;;;;;7285712;19;20216;-88
2023/10/12 12:50:03;;;;;;;25.17;12.20;;;19.60;99.90;;;;;;7286138;19;20196;-88
2023/10/12 12:52:29;;;;;;;23.80;11.53;;;19.60;99.90;;;;;;7285767;19;20186;-88
2023/10/12 12:54:55;;;;;;;26.77;13.43;;;19.60;99.90;;;;;;7286105;19;20181;-90
2023/10/12 12:57:23;;;;;;;32.90;16.00;;;19.40;99.90;;;;;;7286150;19;20181;-89
2023/10/12 12:59:49;;;;;;;29.90;16.20;;;19.10;99.90;;;;;;7285654;19;20180;-89
2023/10/12 13:02:14;;;;;;;33.73;17.37;;;18.90;99.90;;;;;;7309753;19;20204;-89
2023/10/12 13:04:40;;;;;;;33.20;17.73;;;18.90;99.90;;;;;;7289708;19;20176;-89
2023/10/12 13:07:09;;;;;;;33.50;18.33;;;18.70;99.90;;;;;;7284740;19;20181;-88
2023/10/12 13:09:36;;;;;;;36.13;17.50;;;18.90;99.90;;;;;;7286879;19;20195;-89
2023/10/12 13:12:05;;;;;;;33.40;16.53;;;18.90;99.90;;;;;;7287218;19;20184;-89
2023/10/12 13:14:32;;;;;;;30.40;15.90;;;18.80;99.90;;;;;;7285031;19;20200;-89
2023/10/12 13:16:58;;;;;;;28.00;15.83;;;18.80;99.90;;;;;;7284743;19;20185;-89
2023/10/12 13:19:24;;;;;;;27.70;15.67;;;18.90;99.90;;;;;;7285743;19;20541;-89
2023/10/12 13:21:50;;;;;;;31.83;16.87;;;18.90;99.90;;;;;;7284977;19;20713;-88
2023/10/12 13:24:16;;;;;;;35.03;17.43;;;19.00;99.90;;;;;;7299579;19;20181;-88
2023/10/12 13:26:44;;;;;;;34.63;18.33;;;19.00;99.90;;;;;;7311023;19;20191;-88
2023/10/12 13:29:12;;;;;;;32.93;16.33;;;18.90;99.90;;;;;;7293114;19;20247;-88
2023/10/12 13:31:38;;;;;;;30.40;17.60;;;19.00;99.90;;;;;;7291134;19;20201;-89
2023/10/12 13:34:05;;;;;;;29.23;15.37;;;18.90;99.90;;;;;;7291488;19;20225;-89
2023/10/12 13:36:34;;;;;;;32.33;15.97;;;18.90;99.90;;;;;;7291413;19;20193;-89
2023/10/12 13:39:02;;;;;;;27.53;14.57;;;18.90;99.90;;;;;;7291349;19;20197;-89
2023/10/12 13:41:30;;;;;;;28.87;14.37;;;18.70;99.90;;;;;;7292397;19;20253;-88
2023/10/12 13:43:55;;;;;;;29.13;13.93;;;18.70;99.90;;;;;;7293076;19;20643;-89
2023/10/12 13:46:21;;;;;;;23.73;13.77;;;18.50;99.90;;;;;;7288951;19;20187;-90
2023/10/12 13:48:49;;;;;;;32.27;14.30;;;18.60;99.90;;;;;;7299560;19;20200;-89
2023/10/12 13:51:20;;;;;;;24.63;14.33;;;18.70;99.90;;;;;;7315533;19;20287;-89
2023/10/12 13:53:49;;;;;;;24.17;13.57;;;18.80;99.90;;;;;;7284214;19;20780;-90
2023/10/12 13:56:15;;;;;;;28.53;13.57;;;18.80;99.90;;;;;;7312968;19;20245;-90
2023/10/12 13:58:44;;;;;;;28.13;13.87;;;18.80;99.90;;;;;;7291451;19;20201;-89
2023/10/12 14:01:18;;;;;;;28.37;14.67;;;18.80;99.90;;;;;;7291892;19;20256;-89
2023/10/12 14:03:45;;;;;;;23.90;14.60;;;18.80;99.90;;;;;;7291886;19;20188;-88
2023/10/12 14:06:12;;;;;;;32.90;15.17;;;18.90;99.90;;;;;;7292482;19;20212;-89
2023/10/12 14:08:42;;;;;;;29.63;15.20;;;18.90;99.90;;;;;;7296413;19;20185;-90
2023/10/12 14:11:18;;;;;;;27.23;15.90;;;18.90;99.90;;;;;;7297235;19;20193;-89
2023/10/12 14:13:45;;;;;;;33.87;16.27;;;19.00;99.90;;;;;;7294201;19;20288;-89
2023/10/12 14:16:12;;;;;;;28.27;15.43;;;19.00;99.90;;;;;;7295590;19;20188;-89
2023/10/12 14:18:39;;;;;;;29.87;15.03;;;19.10;99.90;;;;;;7294029;19;20204;-89
2023/10/12 14:21:11;;;;;;;30.67;16.13;;;18.90;99.90;;;;;;7293265;19;20207;-89
2023/10/12 14:23:45;;;;;;;30.87;16.10;;;18.90;99.90;;;;;;7292306;19;20194;-87
2023/10/12 14:26:17;;;;;;;32.67;16.63;;;19.10;99.90;;;;;;7291372;19;20221;-90
2023/10/12 14:28:47;;;;;;;27.50;15.53;;;19.30;99.90;;;;;;7291100;19;20267;-91
2023/10/12 14:31:13;;;;;;;26.80;14.57;;;19.50;99.90;;;;;;7293219;19;20185;-90
2023/10/12 14:33:40;;;;;;;31.00;15.43;;;19.50;99.90;;;;;;7289464;19;20189;-90
2023/10/12 14:36:05;;;;;;;31.70;15.07;;;19.60;99.90;;;;;;7288021;19;20189;-89
2023/10/12 14:38:33;;;;;;;31.50;15.77;;;19.60;99.90;;;;;;7290803;19;20681;-89
2023/10/12 14:40:59;;;;;;;31.87;15.90;;;19.70;99.90;;;;;;7289970;19;20516;-90
2023/10/12 14:43:29;;;;;;;28.27;14.80;;;19.70;99.90;;;;;;7291951;19;20217;-89
2023/10/12 14:45:56;;;;;;;33.87;15.47;;;19.80;99.90;;;;;;7289456;19;20270;-89
2023/10/12 14:48:22;;;;;;;31.50;15.47;;;19.90;99.90;;;;;;7289901;19;20208;-89
2023/10/12 14:51:09;;;;;;;29.37;15.37;;;20.00;99.90;;;;;;7292386;19;20561;-90
2023/10/12 14:53:35;;;;;;;32.43;16.03;;;19.70;99.90;;;;;;7289237;19;20200;-90
2023/10/12 14:56:03;;;;;;;35.23;17.27;;;19.50;99.90;;;;;;7291053;19;20268;-89
2023/10/12 14:58:30;;;;;;;30.97;16.90;;;19.60;99.90;;;;;;7290081;19;20193;-88
2023/10/12 15:00:56;;;;;;;30.40;17.40;;;19.70;99.90;;;;;;7289946;19;20267;-89
2023/10/12 15:03:22;;;;;;;30.43;17.13;;;19.80;99.90;;;;;;7291088;19;20196;-88